Portada
METAR-TAF:

METAR-TAF

Aeropuertos :

Koumac, Nueva Caledonia

latitud: 20-34S, longitud: 164-17E, altitud: 23 m

METAR: falta

Hora: 23:02 (12:02 UTC)

Pronóstico

El informe se hizo hace 3 horas y 6 minutos, a las 08:56 UTC
Pronóstico válido del 02 a las 08 UTC al 03 a las 06 UTC
Viento 2 kt con dirección variable
Visibilidad 10 km o más
Escasas nubes a una altura de 1000 ft
Cielo nuboso a una altura de 14000 ft
Temporalmente
del 02 a las 08 UTC al 02 a las 15 UTC
Cielo nuboso a una altura de 1000 ft
Evolucionando progresivamente
del 03 a las 04 UTC al 03 a las 06 UTC
Viento 10 kt del sur

TAF: NWWK 020856Z 0208/0306 VRB02KT 9999 FEW010 BKN140 TEMPO 0208/0215 BKN010 BECMG 0304/0306 17010KT

Observaciones y pronósticos meteorológicos de más de 4000 aeropuertos (mensajes METAR y TAF).

Los puntos amarillos y rojos representan las estaciones disponibles.

Ponga el ratón en el punto deseado para ver el nombre de la estación.

Haga clic para ver las observaciones y los pronósticos meteorológicos.

Para cambiar el mapa : haga clic en los botones verdes con una cruz de color negro para hacer un zoom, en el botón verde con un guión para alejar o en las flechas verdes para mapas adyacentes.


METAR-TAF: